Latest Weather Observations for Green Cape

IDN60801

Issued at 6:33 pm EST Saturday 1 October 2016 (issued every 30 minutes, with the page automatically refreshed every 10 minutes)

About weather observations | Map of weather stations | Latest weather observations for NSW | Other Formats
Station Details ID: 069137 Name: GREEN CAPE AWS Lat: -37.26 Lon: 150.05 Height: 19.4 m
Data from the previous 72 hours. | See also: Recent months at Green Cape
Date/Time
EST
Temp
°C
App
Temp
°C
Dew
Point
°C
Rel
Hum
%
Delta-T
°C
Wind Press
QNH
hPa
Press
MSL
hPa
Rain since
9am
mm
Dir  Spd
km/h
Gust
km/h
Spd
kts
Gust
kts
01/06:30pm 14.8 13.7 13.0 89 1.0 W 11 15 6 8 1004.9 1004.9 2.6
01/06:00pm 14.8 15.3 12.8 88 1.1 SW 2 6 1 3 1004.2 1004.2 2.6
01/05:30pm 14.9 14.0 12.6 86 1.3 NNW 9 13 5 7 1003.5 1003.5 2.6
01/05:00pm 15.1 14.8 12.8 86 1.3 NNW 6 9 3 5 1003.1 1003.1 2.4
01/04:30pm 15.5 14.4 13.0 85 1.4 N 11 13 6 7 1002.5 1002.5 2.4
01/04:00pm 16.4 17.6 13.7 84 1.5 CALM 0 4 0 2 1002.2 1002.2 2.4
01/03:30pm 15.9 16.8 13.0 83 1.6 CALM 0 2 0 1 1002.0 1002.0 2.4
01/03:00pm 16.3 14.2 12.5 78 2.1 S 15 19 8 10 1001.8 1001.8 0.4
01/02:30pm 16.9 16.0 12.6 76 2.4 SSE 9 20 5 11 1001.2 1001.2 0.2
01/02:00pm 16.5 14.8 12.5 77 2.2 ENE 13 15 7 8 1001.2 1001.2 0.2
01/01:30pm 16.9 15.5 11.0 68 3.2 ESE 9 13 5 7 1001.4 1001.4 0.2
01/01:00pm 17.9 16.7 12.8 72 2.9 N 11 13 6 7 1001.2 1001.2 0.2
01/12:30pm 17.4 15.5 11.9 70 3.0 N 13 17 7 9 1000.9 1000.9 0.2
01/12:00pm 16.3 13.8 11.2 72 2.8 N 15 17 8 9 1001.0 1001.0 0.2
01/11:30am 17.5 15.9 11.5 68 3.3 NNE 11 13 6 7 1000.4 1000.4 0.2
01/11:00am 17.0 14.9 11.3 69 3.1 NNE 13 17 7 9 1000.6 1000.6 0.2
01/10:30am 16.8 16.1 10.2 65 3.5 N 4 9 2 5 1000.8 1000.8 0.2
01/10:00am 17.4 17.0 11.0 66 3.5 N 4 6 2 3 1000.8 1000.8 0.2
01/09:30am 15.6 14.1 10.4 71 2.7 N 9 13 5 7 1000.9 1000.9 0.0
01/09:00am 14.2 13.0 9.4 73 2.5 NNW 6 9 3 5 1000.9 1000.9 4.6
01/08:30am 13.1 12.1 9.0 76 2.1 WNW 4 6 2 3 1000.8 1000.8 4.6
01/08:00am 12.7 11.6 8.6 76 2.1 W 4 6 2 3 1000.6 1000.6 4.6
01/07:30am 12.3 10.8 8.4 77 1.9 W 6 9 3 5 1000.5 1000.5 4.6
01/07:00am 11.8 10.3 8.3 79 1.7 WNW 6 7 3 4 1000.2 1000.2 4.6
01/06:30am 11.4 9.4 8.6 83 1.4 W 9 11 5 6 999.8 999.8 4.6
01/06:00am 10.8 8.7 8.2 84 1.3 WNW 9 13 5 7 999.5 999.5 4.6
01/05:30am 10.2 8.1 8.1 87 1.0 WNW 9 13 5 7 999.2 999.2 4.6
01/05:00am 9.8 7.6 7.7 87 1.0 W 9 11 5 6 998.9 998.9 4.6
01/04:30am 9.9 8.0 7.5 85 1.1 WNW 7 11 4 6 998.5 998.5 4.6
01/04:00am 10.4 9.1 7.6 83 1.4 W 4 6 2 3 998.0 998.0 4.6
01/03:30am 9.9 7.8 6.6 80 1.5 NW 7 9 4 5 997.8 997.8 4.6
01/03:00am 9.8 8.2 6.3 79 1.6 NW 4 7 2 4 997.7 997.7 4.6
01/02:30am 10.1 8.2 6.8 80 1.6 WNW 6 9 3 5 997.7 997.7 4.6
01/02:00am 10.8 9.9 6.0 72 2.2 CALM 0 2 0 1 997.8 997.8 4.6
01/01:30am 10.0 7.4 6.2 77 1.8 NW 9 13 5 7 997.5 997.5 4.6
01/01:00am 10.6 7.7 6.7 77 1.9 W 11 15 6 8 997.8 997.8 4.6
01/12:30am 10.7 7.0 6.3 74 2.1 WNW 15 20 8 11 997.7 997.7 4.6
01/12:00am 10.6 6.2 6.4 75 2.0 WNW 19 24 10 13 997.3 997.3 4.6
 
Date/Time
EST
Temp
°C
App
Temp
°C
Dew
Point
°C
Rel
Hum
%
Delta-T
°C
Wind Press
QNH
hPa
Press
MSL
hPa
Rain since
9am
mm
Dir  Spd
km/h
Gust
km/h
Spd
kts
Gust
kts
30/11:30pm 10.4 7.2 6.9 79 1.7 WNW 13 20 7 11 997.3 997.3 4.6
30/11:00pm 10.7 7.2 7.4 80 1.6 WNW 15 20 8 11 997.7 997.7 4.6
30/10:30pm 10.5 6.3 8.1 85 1.2 WNW 20 24 11 13 997.7 997.7 4.6
30/10:00pm 9.9 5.8 8.0 88 0.9 WNW 19 24 10 13 997.5 997.5 4.6
30/09:30pm 10.0 6.0 8.1 88 0.9 WNW 19 24 10 13 997.2 997.2 4.6
30/09:00pm 10.6 6.1 8.4 86 1.1 W 22 24 12 13 997.1 997.1 4.6
30/08:30pm 10.5 7.5 7.7 83 1.3 W 13 17 7 9 997.0 997.0 4.6
30/08:00pm 11.2 8.0 8.4 83 1.4 WSW 15 19 8 10 996.8 996.8 4.6
30/07:30pm 11.3 6.8 8.7 84 1.3 SW 22 28 12 15 996.5 996.5 4.6
30/07:00pm 11.3 4.0 8.9 85 1.2 SW 37 48 20 26 996.1 996.1 4.6
30/06:50pm 11.6 3.2 9.0 84 1.3 WSW 43 52 23 28 995.7 995.7 4.6
30/06:30pm 12.5 8.2 10.7 89 0.9 W 24 52 13 28 995.5 995.5 4.6
30/06:28pm 12.6 9.6 10.8 89 0.9 W 17 43 9 23 995.4 995.4 4.6
30/06:00pm 11.8 9.8 10.2 90 0.8 SW 11 17 6 9 994.2 994.1 4.6
30/05:30pm 12.2 10.0 10.8 91 0.7 SSW 13 17 7 9 993.7 993.6 4.6
30/05:00pm 12.4 8.6 11.1 92 0.7 SSW 22 28 12 15 993.1 993.0 4.6
30/04:30pm 12.1 7.0 10.7 91 0.7 S 28 35 15 19 992.8 992.7 4.4
30/04:00pm 12.5 7.6 10.0 85 1.3 W 26 32 14 17 992.8 992.7 3.0
30/03:39pm 14.4 8.4 10.0 75 2.3 WSW 32 57 17 31 991.7 991.6 0.0
30/03:37pm 14.7 9.8 10.1 74 2.4 W 26 41 14 22 992.0 991.9 0.0
30/03:30pm 15.4 11.8 10.6 73 2.5 NW 20 32 11 17 991.9 991.8 0.0
30/03:00pm 15.9 10.6 11.1 73 2.6 N 30 35 16 19 990.9 990.8 0.0
30/02:30pm 15.7 11.0 10.5 71 2.7 N 26 30 14 16 991.1 991.0 0.0
30/02:00pm 15.4 9.4 10.0 70 2.8 N 32 39 17 21 991.2 991.1 0.0
30/01:30pm 15.5 8.0 9.4 67 3.2 N 39 44 21 24 991.2 991.1 0.0
30/01:00pm 15.4 7.1 9.5 68 3.1 N 43 50 23 27 991.0 990.9 0.0
30/12:30pm 15.4 7.0 9.5 68 3.1 N 44 52 24 28 991.2 991.1 0.0
30/12:00pm 15.3 7.0 9.2 67 3.2 N 43 50 23 27 991.7 991.6 0.0
30/11:30am 15.1 6.7 9.0 67 3.1 N 43 52 23 28 991.9 991.8 0.0
30/11:00am 14.8 4.9 8.3 65 3.3 N 50 61 27 33 991.6 991.5 0.0
30/10:30am 14.8 5.0 8.7 67 3.1 N 50 59 27 32 991.7 991.6 0.0
30/10:00am 14.5 6.0 9.1 70 2.8 N 44 54 24 29 992.0 991.9 0.0
30/09:30am 14.2 5.9 9.2 72 2.6 N 43 50 23 27 992.2 992.1 0.0
30/09:00am 14.2 5.6 9.0 71 2.7 N 44 52 24 28 992.3 992.2 7.2
30/08:30am 14.1 6.2 9.3 73 2.5 N 41 52 22 28 992.7 992.6 7.2
30/08:00am 13.8 6.2 9.0 73 2.5 N 39 50 21 27 992.7 992.6 7.2
30/07:30am 13.8 5.8 9.0 73 2.4 N 41 50 22 27 992.8 992.7 7.2
30/07:00am 13.9 5.9 9.1 73 2.5 N 41 52 22 28 992.8 992.7 7.2
30/06:30am 14.1 6.6 9.3 73 2.5 N 39 46 21 25 992.7 992.6 7.2
30/06:00am 12.8 7.9 8.3 74 2.3 N 24 30 13 16 993.0 992.9 7.2
30/05:30am 12.6 8.6 8.3 75 2.1 N 19 24 10 13 993.0 992.9 7.2
30/05:00am 13.2 7.5 8.5 73 2.4 N 28 35 15 19 992.7 992.6 7.2
30/04:30am 13.7 5.5 8.3 70 2.7 N 41 46 22 25 992.2 992.1 7.2
30/04:18am 13.2 7.2 8.7 74 2.3 N 30 41 16 22 992.3 992.2 7.2
30/04:00am 12.2 8.1 7.7 74 2.2 N 19 22 10 12 992.5 992.4 7.2
30/03:30am 12.5 7.4 7.8 73 2.3 N 24 28 13 15 992.7 992.6 7.2
30/03:00am 12.2 8.5 6.5 68 2.7 N 15 19 8 10 992.8 992.7 7.2
30/02:30am 11.5 8.8 5.6 67 2.7 N 9 15 5 8 993.4 993.3 7.2
30/02:00am 12.4 8.9 7.3 71 2.5 WSW 15 19 8 10 993.8 993.7 7.2
30/01:30am 12.7 9.6 5.4 61 3.4 WNW 11 17 6 9 994.2 994.1 7.2
30/01:00am 12.5 8.3 4.0 56 3.9 NW 15 22 8 12 994.2 994.1 7.2
30/12:30am 12.4 8.3 4.4 58 3.6 NNW 15 22 8 12 994.1 994.0 7.2
30/12:00am 12.0 7.8 3.8 57 3.7 NNW 15 20 8 11 994.1 994.0 7.2
 
Date/Time
EST
Temp
°C
App
Temp
°C
Dew
Point
°C
Rel
Hum
%
Delta-T
°C
Wind Press
QNH
hPa
Press
MSL
hPa
Rain since
9am
mm
Dir  Spd
km/h
Gust
km/h
Spd
kts
Gust
kts
29/11:30pm 12.4 7.8 3.9 56 3.8 NNW 17 20 9 11 994.0 993.9 7.2
29/11:00pm 12.1 7.5 3.6 56 3.8 NNW 17 22 9 12 993.8 993.7 7.2
29/10:30pm 12.0 8.5 5.4 64 3.1 N 13 17 7 9 993.6 993.5 7.2
29/10:00pm 12.4 7.5 3.9 56 3.9 NNW 19 20 10 11 993.2 993.1 7.2
29/09:30pm 12.7 8.4 5.4 61 3.4 NNW 17 22 9 12 993.2 993.1 7.2
29/09:00pm 13.0 8.3 5.2 59 3.7 NNW 19 28 10 15 993.4 993.3 7.2
29/08:30pm 13.3 9.2 4.2 54 4.1 WNW 15 24 8 13 993.1 993.0 7.2
29/08:00pm 13.1 9.8 4.8 57 3.9 NW 11 20 6 11 993.1 993.0 7.2
29/07:30pm 13.6 11.5 6.5 62 3.4 WNW 7 11 4 6 992.8 992.7 7.2
29/07:00pm 14.4 11.8 7.7 64 3.4 NW 11 15 6 8 992.6 992.5 7.2
29/06:30pm 15.1 13.3 12.1 82 1.6 NNW 13 20 7 11 991.9 991.8 7.2
29/06:00pm 15.3 10.3 12.2 82 1.7 N 30 41 16 22 991.4 991.3 7.2
29/05:30pm 16.0 10.9 13.7 86 1.3 N 33 39 18 21 991.2 991.1 7.2
29/05:00pm 15.8 10.6 13.5 86 1.3 N 33 37 18 20 991.2 991.1 7.2
29/04:30pm 16.4 12.0 14.1 86 1.3 N 30 35 16 19 990.8 990.7 7.2
29/04:00pm 16.7 11.9 14.5 87 1.3 N 33 41 18 22 990.6 990.5 7.2
29/03:30pm 16.7 11.6 14.7 88 1.2 N 35 46 19 25 990.5 990.4 7.2
29/03:00pm 16.4 8.8 14.6 89 1.0 N 48 59 26 32 990.4 990.3 7.2
29/02:30pm 16.2 9.4 14.7 91 0.9 N 44 54 24 29 990.7 990.6 7.2
29/02:20pm 15.9 9.0 14.4 91 0.9 N 44 65 24 35 990.7 990.6 7.2
29/02:00pm 16.0 7.3 14.7 92 0.8 N 54 69 29 37 990.5 990.4 7.2
29/01:43pm 15.3 6.0 14.2 93 0.6 N 56 76 30 41 990.2 990.1 7.2
29/01:30pm 15.2 5.9 14.2 94 0.6 N 56 70 30 38 990.5 990.4 7.2
29/01:00pm 15.1 5.6 14.3 95 0.5 N 57 78 31 42 992.1 992.0 7.2
29/12:41pm 14.9 5.1 14.3 96 0.3 N 59 78 32 42 992.2 992.1 7.0
29/12:30pm 14.8 5.5 14.2 96 0.3 N 56 70 30 38 992.7 992.6 7.0
29/12:00pm 14.5 4.5 13.9 96 0.3 N 59 76 32 41 992.7 992.6 7.0
29/11:30am 14.2 4.6 13.4 95 0.4 N 56 67 30 36 993.4 993.3 6.4
29/11:00am 14.5 6.9 13.5 94 0.6 N 46 54 25 29 993.6 993.5 4.0
29/10:30am 14.4 6.3 13.3 93 0.6 N 48 57 26 31 994.0 993.9 3.0
29/10:00am 15.2 6.1 13.7 91 0.8 NNE 54 63 29 34 994.9 994.8 1.2
29/09:30am 15.2 7.6 13.6 90 0.9 NNE 46 56 25 30 995.4 995.4 0.2
29/09:00am 15.1 6.6 13.3 89 1.0 NNE 50 59 27 32 996.0 996.0 0.6
29/08:30am 15.4 6.3 13.8 90 0.9 N 54 65 29 35 996.8 996.8 0.6
29/08:00am 15.1 6.7 13.5 90 0.9 N 50 57 27 31 997.6 997.6 0.4
29/07:30am 14.9 5.9 12.8 87 1.2 N 52 61 28 33 998.0 998.0 0.2
29/07:00am 15.7 7.4 12.6 82 1.7 N 48 56 26 30 998.7 998.7 0.0
29/06:30am 15.4 7.4 12.3 82 1.7 N 46 54 25 29 999.1 999.1 0.0
29/06:00am 15.3 7.2 12.2 82 1.7 N 46 56 25 30 999.3 999.3 0.0
29/05:30am 15.6 6.5 12.5 82 1.7 N 52 59 28 32 999.0 999.0 0.0
29/05:00am 15.7 7.0 12.6 82 1.7 N 50 57 27 31 999.1 999.1 0.0
29/04:30am 15.8 7.9 12.7 82 1.7 NNE 46 56 25 30 999.7 999.7 0.0
29/04:00am 15.7 7.7 12.5 81 1.8 N 46 54 25 29 1000.4 1000.4 0.0
29/03:30am 15.5 8.1 12.4 82 1.7 N 43 50 23 27 1001.1 1001.1 0.0
29/03:00am 15.6 8.1 12.7 83 1.6 N 44 56 24 30 1001.8 1001.8 0.0
29/02:30am 15.7 8.2 12.6 82 1.7 NNE 44 54 24 29 1002.2 1002.2 0.0
29/02:00am 15.5 8.1 12.6 83 1.6 NNE 43 50 23 27 1002.8 1002.8 0.0
29/01:30am 15.5 7.9 12.4 82 1.7 NNE 44 54 24 29 1003.3 1003.3 0.0
29/01:00am 15.6 8.0 12.4 81 1.8 N 44 52 24 28 1004.3 1004.3 0.0
29/12:30am 15.7 8.9 12.1 79 2.0 NNE 39 48 21 26 1004.8 1004.8 0.0
29/12:00am 15.8 7.6 11.6 76 2.3 NNE 46 56 25 30 1005.4 1005.4 0.0
 
Date/Time
EST
Temp
°C
App
Temp
°C
Dew
Point
°C
Rel
Hum
%
Delta-T
°C
Wind Press
QNH
hPa
Press
MSL
hPa
Rain since
9am
mm
Dir  Spd
km/h
Gust
km/h
Spd
kts
Gust
kts
28/11:30pm 15.6 7.2 11.2 75 2.4 NNE 46 56 25 30 1005.8 1005.8 0.0
28/11:00pm 15.4 6.5 10.6 73 2.5 NNE 48 56 26 30 1006.3 1006.3 0.0
28/10:30pm 15.5 7.0 10.5 72 2.6 NNE 46 54 25 29 1006.5 1006.5 0.0
28/10:00pm 15.4 6.9 10.8 74 2.4 NNE 46 54 25 29 1007.1 1007.1 0.0
28/09:30pm 15.2 6.7 10.8 75 2.3 NNE 46 54 25 29 1007.2 1007.2 0.0
28/09:00pm 15.2 7.4 11.0 76 2.2 NNE 43 50 23 27 1007.6 1007.6 0.0
28/08:30pm 15.1 7.6 10.9 76 2.2 NNE 41 48 22 26 1008.1 1008.1 0.0
28/08:00pm 15.0 7.9 11.0 77 2.1 NNE 39 43 21 23 1008.5 1008.5 0.0
28/07:30pm 15.0 8.2 10.6 75 2.3 NNE 37 43 20 23 1008.6 1008.6 0.0
28/07:00pm 15.1 9.0 10.3 73 2.5 NNE 33 39 18 21 1008.6 1008.6 0.0

Other Formats:

Comma delimited format used in spreadsheet applications
http://www.bom.gov.au/fwo/IDN60801/IDN60801.94934.axf

JavaScript Object Notation format (JSON) in row-major order
http://www.bom.gov.au/fwo/IDN60801/IDN60801.94934.json